createdAt,value
2019-01-06T00:02:19.036Z,11.37
2019-01-06T00:04:49.128Z,11.30
2019-01-06T00:07:31.279Z,8.97
2019-01-06T00:10:07.556Z,8.27
2019-01-06T00:12:40.232Z,14.73
2019-01-06T00:15:26.393Z,11.53
2019-01-06T00:18:12.713Z,12.50
2019-01-06T00:21:01.081Z,10.33
2019-01-06T00:23:47.082Z,9.00
2019-01-06T00:26:17.172Z,10.20
2019-01-06T00:28:50.158Z,9.00
2019-01-06T00:31:29.292Z,6.73
2019-01-06T00:34:15.852Z,7.90
2019-01-06T00:37:02.091Z,7.83
2019-01-06T00:39:32.162Z,12.53
2019-01-06T00:42:05.348Z,11.13
2019-01-06T00:44:41.075Z,9.87
2019-01-06T00:47:17.134Z,7.73
2019-01-06T00:49:47.216Z,8.43
2019-01-06T00:52:20.367Z,7.83
2019-01-06T00:54:53.604Z,11.00
2019-01-06T00:57:26.766Z,8.00
2019-01-06T01:00:14.785Z,10.30
2019-01-06T01:02:57.196Z,9.87
2019-01-06T01:05:27.252Z,7.13
2019-01-06T01:07:57.353Z,10.53
2019-01-06T01:10:30.217Z,12.07
2019-01-06T01:13:16.206Z,10.00
2019-01-06T01:15:54.956Z,12.53
2019-01-06T01:18:31.090Z,6.83
2019-01-06T01:21:01.155Z,15.23
2019-01-06T01:23:42.905Z,9.77
2019-01-06T01:26:15.729Z,11.33
2019-01-06T01:29:01.889Z,10.80
2019-01-06T01:31:34.507Z,11.87
2019-01-06T01:34:07.377Z,15.57
2019-01-06T01:36:46.633Z,12.37
2019-01-06T01:39:16.857Z,13.63
2019-01-06T01:41:46.928Z,11.37
2019-01-06T01:44:17.047Z,13.87
2019-01-06T01:46:50.175Z,8.93
2019-01-06T01:49:23.211Z,11.43
2019-01-06T01:52:09.495Z,12.40
2019-01-06T01:54:51.582Z,11.57
2019-01-06T01:57:21.620Z,14.43
2019-01-06T02:00:06.812Z,13.50
2019-01-06T02:02:39.717Z,20.90
2019-01-06T02:05:25.103Z,14.20
2019-01-06T02:07:55.170Z,14.73
2019-01-06T02:10:34.132Z,12.50
2019-01-06T02:13:12.966Z,12.43
2019-01-06T02:16:01.443Z,13.60
2019-01-06T02:18:31.529Z,13.43
2019-01-06T02:21:01.650Z,11.43
2019-01-06T02:23:47.243Z,13.73
2019-01-06T02:26:20.310Z,10.40
2019-01-06T02:28:50.369Z,12.37
2019-01-06T02:31:36.774Z,12.87
2019-01-06T02:34:22.846Z,16.93
2019-01-06T02:37:08.903Z,15.67
2019-01-06T02:39:44.821Z,13.33
2019-01-06T02:42:14.982Z,14.87
2019-01-06T02:45:01.473Z,15.07
2019-01-06T02:47:37.583Z,15.37
2019-01-06T02:50:21.114Z,12.27
2019-01-06T02:53:07.639Z,12.23
2019-01-06T02:55:52.795Z,13.77
2019-01-06T02:58:34.572Z,13.10
2019-01-06T03:01:13.371Z,14.90
2019-01-06T03:03:52.462Z,19.23
2019-01-06T03:06:22.584Z,12.70
2019-01-06T03:08:55.145Z,14.30
2019-01-06T03:11:30.775Z,14.30
2019-01-06T03:14:06.941Z,13.87
2019-01-06T03:16:39.412Z,12.63
2019-01-06T03:19:14.983Z,16.33
2019-01-06T03:21:48.278Z,14.03
2019-01-06T03:24:27.128Z,18.67
2019-01-06T03:26:57.205Z,12.77
2019-01-06T03:29:27.278Z,15.53
2019-01-06T03:32:15.759Z,15.77
2019-01-06T03:34:48.876Z,15.13
2019-01-06T03:37:24.916Z,14.80
2019-01-06T03:39:54.996Z,20.67
2019-01-06T03:42:30.826Z,15.50
2019-01-06T03:45:12.641Z,12.20
2019-01-06T03:48:01.374Z,14.27
2019-01-06T03:50:47.897Z,17.13
2019-01-06T03:53:34.204Z,18.67
2019-01-06T03:56:21.097Z,19.00
2019-01-06T03:58:53.975Z,16.07
2019-01-06T04:01:26.764Z,21.10
2019-01-06T04:04:02.736Z,21.80
2019-01-06T04:06:38.879Z,19.43
2019-01-06T04:09:11.986Z,18.97
2019-01-06T04:11:50.902Z,15.73
2019-01-06T04:14:39.338Z,16.43
2019-01-06T04:17:21.397Z,20.33
2019-01-06T04:19:57.205Z,19.03
2019-01-06T04:22:42.459Z,18.40
2019-01-06T04:25:12.516Z,17.67
2019-01-06T04:27:51.451Z,15.87
2019-01-06T04:30:33.558Z,17.40
2019-01-06T04:33:03.654Z,18.50
2019-01-06T04:35:39.822Z,20.87
2019-01-06T04:38:15.617Z,14.93
2019-01-06T04:40:57.675Z,18.73
2019-01-06T04:43:44.242Z,17.10
2019-01-06T04:46:23.147Z,18.30
2019-01-06T04:48:53.228Z,14.13
2019-01-06T04:51:35.460Z,16.13
2019-01-06T04:54:05.534Z,20.87
2019-01-06T04:56:51.813Z,13.87
2019-01-06T04:59:21.905Z,19.50
2019-01-06T05:01:54.428Z,15.13
2019-01-06T05:04:27.252Z,15.10
2019-01-06T05:07:13.623Z,17.63
2019-01-06T05:09:59.980Z,13.90
2019-01-06T05:12:46.689Z,16.07
2019-01-06T05:15:19.780Z,15.87
2019-01-06T05:17:49.864Z,15.33
2019-01-06T05:20:36.152Z,21.23
2019-01-06T05:23:06.238Z,16.73
2019-01-06T05:25:36.344Z,18.13
2019-01-06T05:28:06.427Z,18.90
2019-01-06T05:30:42.478Z,18.57
2019-01-06T05:33:18.504Z,14.97
2019-01-06T05:35:54.565Z,17.73
2019-01-06T05:38:36.375Z,20.80
2019-01-06T05:41:09.493Z,20.57
2019-01-06T05:43:39.592Z,20.80
2019-01-06T05:46:25.467Z,21.83
2019-01-06T05:48:55.714Z,19.03
2019-01-06T05:51:31.839Z,22.50
2019-01-06T05:54:18.702Z,22.87
2019-01-06T05:56:48.767Z,21.77
2019-01-06T05:59:18.858Z,22.23
2019-01-06T06:01:48.948Z,26.27
2019-01-06T06:04:35.058Z,22.80
2019-01-06T06:07:23.277Z,22.30
2019-01-06T06:09:53.418Z,25.40
2019-01-06T06:12:29.000Z,21.50
2019-01-06T06:15:07.895Z,24.63
2019-01-06T06:17:43.741Z,22.17
2019-01-06T06:20:26.116Z,20.70
2019-01-06T06:22:59.158Z,25.83
2019-01-06T06:25:38.253Z,23.37
2019-01-06T06:28:11.211Z,21.53
2019-01-06T06:30:41.288Z,20.77
2019-01-06T06:33:14.083Z,21.10
2019-01-06T06:35:50.328Z,23.77
2019-01-06T06:38:20.428Z,26.40
2019-01-06T06:40:50.568Z,22.70
2019-01-06T06:43:23.068Z,20.10
2019-01-06T06:46:02.046Z,21.73
2019-01-06T06:48:48.461Z,18.77
2019-01-06T06:51:21.648Z,20.03
2019-01-06T06:54:06.808Z,20.83
2019-01-06T06:56:53.416Z,22.63
2019-01-06T06:59:39.855Z,23.50
2019-01-06T07:02:32.793Z,26.33
2019-01-06T07:05:08.768Z,22.53
2019-01-06T07:07:55.062Z,26.53
2019-01-06T07:10:37.082Z,22.60
2019-01-06T07:13:23.609Z,24.50
2019-01-06T07:16:06.122Z,24.87
2019-01-06T07:18:42.106Z,23.57
2019-01-06T07:21:28.231Z,23.40
2019-01-06T07:24:03.889Z,26.50
2019-01-06T07:26:50.166Z,28.10
2019-01-06T07:29:20.240Z,25.07
2019-01-06T07:32:06.297Z,27.50
2019-01-06T07:34:36.390Z,25.17
2019-01-06T07:37:06.453Z,27.47
2019-01-06T07:39:45.269Z,21.23
2019-01-06T07:42:33.177Z,24.37
2019-01-06T07:45:12.234Z,27.53
2019-01-06T07:47:44.773Z,25.20
2019-01-06T07:50:26.908Z,28.80
2019-01-06T07:53:00.104Z,24.70
2019-01-06T07:55:46.340Z,27.30
2019-01-06T07:58:22.290Z,21.87
2019-01-06T08:00:52.404Z,28.63
2019-01-06T08:03:28.357Z,28.67
2019-01-06T08:05:58.449Z,28.07
2019-01-06T08:08:28.514Z,25.27
2019-01-06T08:11:07.482Z,28.10
2019-01-06T08:13:54.204Z,25.63
2019-01-06T08:16:30.193Z,27.73
2019-01-06T08:19:00.288Z,24.80
2019-01-06T08:21:42.562Z,30.17
2019-01-06T08:24:24.317Z,23.07
2019-01-06T08:26:54.453Z,25.00
2019-01-06T08:29:39.790Z,23.83
2019-01-06T08:32:09.871Z,27.63
2019-01-06T08:34:56.221Z,26.83
2019-01-06T08:37:35.261Z,26.83
2019-01-06T08:40:14.721Z,27.47
2019-01-06T08:43:01.357Z,21.07
2019-01-06T08:45:31.431Z,21.73
2019-01-06T08:48:13.417Z,27.03
2019-01-06T08:50:52.153Z,21.00
2019-01-06T08:53:34.444Z,21.10
2019-01-06T08:56:04.591Z,22.37
2019-01-06T08:58:44.022Z,23.67
2019-01-06T09:01:14.100Z,20.53
2019-01-06T09:04:00.349Z,23.97
2019-01-06T09:06:45.619Z,20.33
2019-01-06T09:09:32.684Z,22.63
2019-01-06T09:12:05.716Z,20.23
2019-01-06T09:14:38.685Z,20.80
2019-01-06T09:17:11.964Z,25.20
2019-01-06T09:19:50.574Z,22.07
2019-01-06T09:22:29.048Z,22.50
2019-01-06T09:24:59.154Z,19.93
2019-01-06T09:27:44.163Z,20.73
2019-01-06T09:30:30.792Z,26.67
2019-01-06T09:33:03.579Z,23.40
2019-01-06T09:35:45.907Z,21.37
2019-01-06T09:38:32.360Z,23.43
2019-01-06T09:41:20.261Z,21.23
2019-01-06T09:43:55.953Z,21.03
2019-01-06T09:46:28.726Z,23.37
2019-01-06T09:49:07.528Z,30.00
2019-01-06T09:51:53.973Z,22.23
2019-01-06T09:54:40.364Z,24.23
2019-01-06T09:57:19.456Z,23.20
2019-01-06T10:00:05.553Z,22.73
2019-01-06T10:02:53.751Z,24.07
2019-01-06T10:05:39.873Z,26.53
2019-01-06T10:08:12.829Z,22.17
2019-01-06T10:13:25.222Z,24.97
2019-01-06T10:16:11.612Z,22.93
2019-01-06T10:18:47.569Z,23.73
2019-01-06T10:21:33.974Z,21.07
2019-01-06T10:24:04.191Z,23.30
2019-01-06T10:26:34.443Z,23.40
2019-01-06T10:29:04.519Z,22.73
2019-01-06T10:31:37.756Z,25.77
2019-01-06T10:34:16.961Z,20.70
2019-01-06T10:37:05.268Z,20.07
2019-01-06T10:39:38.284Z,21.87
2019-01-06T10:42:25.026Z,22.70
2019-01-06T10:44:58.023Z,19.90
2019-01-06T10:47:37.090Z,23.67
2019-01-06T10:50:26.203Z,21.17
2019-01-06T10:53:02.332Z,24.20
2019-01-06T10:55:47.477Z,21.47
2019-01-06T10:58:17.664Z,24.90
2019-01-06T11:01:03.803Z,24.33
2019-01-06T11:03:51.012Z,22.73
2019-01-06T11:06:24.264Z,20.33
2019-01-06T11:08:57.105Z,20.77
2019-01-06T11:11:36.503Z,23.57
2019-01-06T11:14:12.456Z,19.07
2019-01-06T11:16:42.577Z,20.23
2019-01-06T11:19:12.775Z,19.97
2019-01-06T11:21:58.369Z,22.73
2019-01-06T11:24:37.959Z,21.63
2019-01-06T11:27:24.635Z,22.20
2019-01-06T11:29:54.736Z,18.17
2019-01-06T11:32:30.633Z,19.20
2019-01-06T11:35:03.407Z,23.40
2019-01-06T11:37:33.509Z,19.47
2019-01-06T11:40:20.182Z,19.77
2019-01-06T11:45:40.332Z,20.10
2019-01-06T11:48:16.155Z,20.03
2019-01-06T11:53:39.718Z,21.60
2019-01-06T11:56:09.804Z,20.10
2019-01-06T11:58:42.884Z,20.37
2019-01-06T12:01:16.140Z,20.03
2019-01-06T12:03:46.229Z,19.67
2019-01-06T12:06:16.306Z,17.83
2019-01-06T12:08:49.404Z,18.13
2019-01-06T12:11:20.990Z,18.77
2019-01-06T12:13:53.774Z,18.73
2019-01-06T12:16:23.870Z,17.50
2019-01-06T12:19:02.949Z,17.77
2019-01-06T12:21:35.764Z,17.90
2019-01-06T12:24:22.204Z,18.67
2019-01-06T12:26:52.346Z,21.47
2019-01-06T12:29:22.453Z,16.27
2019-01-06T12:32:08.448Z,17.03
2019-01-06T12:34:56.656Z,13.53
2019-01-06T12:37:43.492Z,19.10
2019-01-06T12:40:30.074Z,13.87
2019-01-06T12:43:08.623Z,16.30
2019-01-06T12:45:55.154Z,16.70
2019-01-06T12:48:31.071Z,14.37
2019-01-06T12:51:10.036Z,15.43
2019-01-06T12:53:49.148Z,17.07
2019-01-06T12:56:34.194Z,18.40
2019-01-06T12:59:20.822Z,18.50
2019-01-06T13:02:06.754Z,18.97
2019-01-06T13:04:42.755Z,21.80
2019-01-06T13:07:15.431Z,19.03
2019-01-06T13:10:01.761Z,18.30
2019-01-06T13:12:37.781Z,17.40
2019-01-06T13:15:08.443Z,22.00
2019-01-06T13:17:38.515Z,18.67
2019-01-06T13:20:11.799Z,15.10
2019-01-06T13:22:41.982Z,19.90
2019-01-06T13:25:12.094Z,20.40
2019-01-06T13:27:48.366Z,20.00
2019-01-06T13:30:18.509Z,15.53
2019-01-06T13:32:54.473Z,18.40
2019-01-06T13:35:42.558Z,17.80
2019-01-06T13:38:28.822Z,16.60
2019-01-06T13:41:15.502Z,15.67
2019-01-06T13:43:51.684Z,15.37
2019-01-06T13:46:38.172Z,16.17
2019-01-06T13:49:13.791Z,16.10
2019-01-06T13:51:58.951Z,15.17
2019-01-06T13:54:30.355Z,15.67
2019-01-06T13:57:17.059Z,16.93
2019-01-06T13:59:47.138Z,15.47
2019-01-06T14:02:19.891Z,15.60
2019-01-06T14:04:50.077Z,16.87
2019-01-06T14:07:29.262Z,15.60
2019-01-06T14:10:08.251Z,18.73
2019-01-06T14:12:38.346Z,18.07
2019-01-06T14:15:11.025Z,16.87
2019-01-06T14:17:41.148Z,19.20
2019-01-06T14:20:16.728Z,16.03
2019-01-06T14:22:43.178Z,18.10
2019-01-06T14:25:16.487Z,16.57
2019-01-06T14:27:49.591Z,16.80
2019-01-06T14:30:35.047Z,18.80
2019-01-06T14:33:10.976Z,15.57
2019-01-06T14:35:51.338Z,16.37
2019-01-06T14:38:33.399Z,15.90
2019-01-06T14:41:09.148Z,15.20
2019-01-06T14:43:55.877Z,16.00
2019-01-06T14:46:28.843Z,16.87
2019-01-06T14:49:17.348Z,18.60
2019-01-06T14:51:47.462Z,18.27
2019-01-06T14:54:20.369Z,22.30
2019-01-06T14:57:02.335Z,18.77
2019-01-06T14:59:38.098Z,24.37
2019-01-06T15:02:10.861Z,24.17
2019-01-06T15:04:49.704Z,20.67
2019-01-06T15:07:25.465Z,22.40
2019-01-06T15:10:10.308Z,18.97
2019-01-06T15:12:49.229Z,19.13
2019-01-06T15:15:34.216Z,21.57
2019-01-06T15:18:22.712Z,18.60
2019-01-06T15:21:10.913Z,19.37
2019-01-06T15:23:46.881Z,24.20
2019-01-06T15:26:28.963Z,20.57
2019-01-06T15:29:15.961Z,23.43
2019-01-06T15:31:57.833Z,20.33
2019-01-06T15:34:39.995Z,19.73
2019-01-06T15:37:10.072Z,19.83
2019-01-06T15:39:52.654Z,18.00
2019-01-06T15:42:25.517Z,16.90
2019-01-06T15:44:58.833Z,18.97
2019-01-06T15:47:41.315Z,18.43
2019-01-06T15:50:17.243Z,20.53
2019-01-06T15:52:56.180Z,17.73
2019-01-06T15:55:38.023Z,17.33
2019-01-06T15:58:24.286Z,15.93
2019-01-06T16:00:54.425Z,15.87
2019-01-06T16:03:41.013Z,27.13
2019-01-06T16:06:11.133Z,19.13
2019-01-06T16:08:57.671Z,15.43
2019-01-06T16:11:39.851Z,15.43
2019-01-06T16:14:25.143Z,13.57
2019-01-06T16:17:11.608Z,16.93
2019-01-06T16:19:44.440Z,18.57
2019-01-06T16:22:30.859Z,18.97
2019-01-06T16:25:01.100Z,16.60
2019-01-06T16:27:49.754Z,20.90
2019-01-06T16:30:25.888Z,16.23
2019-01-06T16:33:12.353Z,15.53
2019-01-06T16:35:45.182Z,17.57
2019-01-06T16:38:31.642Z,16.60
2019-01-06T16:41:04.513Z,20.50
2019-01-06T16:43:40.391Z,23.60
2019-01-06T16:46:16.133Z,19.10
2019-01-06T16:48:51.963Z,16.60
2019-01-06T16:51:27.658Z,20.70
2019-01-06T16:54:06.889Z,20.03
2019-01-06T16:56:39.426Z,19.13
2019-01-06T16:59:10.106Z,18.50
2019-01-06T17:01:42.968Z,19.03
2019-01-06T17:04:18.585Z,17.77
2019-01-06T17:06:48.813Z,19.93
2019-01-06T17:09:18.934Z,18.33
2019-01-06T17:11:51.461Z,19.77
2019-01-06T17:14:24.615Z,19.57
2019-01-06T17:16:55.303Z,19.20
2019-01-06T17:19:25.384Z,17.90
2019-01-06T17:22:11.380Z,17.03
2019-01-06T17:24:57.794Z,18.80
2019-01-06T17:27:43.266Z,20.37
2019-01-06T17:30:16.139Z,19.00
2019-01-06T17:33:01.247Z,20.30
2019-01-06T17:35:40.504Z,20.53
2019-01-06T17:38:22.709Z,21.47
2019-01-06T17:41:01.726Z,19.80
2019-01-06T17:43:37.818Z,21.83
2019-01-06T17:46:08.000Z,21.77
2019-01-06T17:48:44.369Z,18.83
2019-01-06T17:51:14.553Z,25.43
2019-01-06T17:53:44.734Z,21.33
2019-01-06T17:56:14.887Z,21.17
2019-01-06T17:58:50.712Z,20.20
2019-01-06T18:01:35.711Z,19.50
2019-01-06T18:04:06.213Z,20.67
2019-01-06T18:06:48.298Z,20.10
2019-01-06T18:09:24.472Z,20.73
2019-01-06T18:11:57.067Z,24.13
2019-01-06T18:14:42.524Z,19.77
2019-01-06T18:17:28.767Z,23.00
2019-01-06T18:20:15.337Z,21.57
2019-01-06T18:22:57.602Z,20.30
2019-01-06T18:25:33.245Z,20.47
2019-01-06T18:28:18.727Z,18.80
2019-01-06T18:31:00.634Z,23.07
2019-01-06T18:33:30.705Z,22.93
2019-01-06T18:36:06.838Z,20.47
2019-01-06T18:38:43.180Z,20.33
2019-01-06T18:41:16.035Z,19.17
2019-01-06T18:43:48.833Z,19.50
2019-01-06T18:46:19.108Z,23.77
2019-01-06T18:48:52.176Z,20.23
2019-01-06T18:51:28.248Z,21.07
2019-01-06T18:54:15.015Z,22.57
2019-01-06T18:57:03.218Z,28.93
2019-01-06T18:59:49.499Z,23.63
2019-01-06T19:02:19.620Z,19.80
2019-01-06T19:04:52.367Z,21.10
2019-01-06T19:07:39.076Z,21.13
2019-01-06T19:10:25.762Z,24.03
2019-01-06T19:13:12.152Z,21.27
2019-01-06T19:15:51.122Z,17.73
2019-01-06T19:18:39.421Z,19.90
2019-01-06T19:21:15.246Z,24.23
2019-01-06T19:24:01.276Z,20.57
2019-01-06T19:26:31.485Z,20.30
2019-01-06T19:29:01.588Z,22.47
2019-01-06T19:31:48.143Z,22.17
2019-01-06T19:34:36.725Z,22.87
2019-01-06T19:37:18.896Z,20.87
2019-01-06T19:39:49.083Z,25.03
2019-01-06T19:42:35.341Z,22.70
2019-01-06T19:45:24.156Z,24.53
2019-01-06T19:48:06.162Z,20.17
2019-01-06T19:50:54.598Z,22.77
2019-01-06T19:53:36.487Z,21.17
2019-01-06T19:56:24.855Z,20.83
2019-01-06T19:59:03.603Z,20.87
2019-01-06T20:01:46.156Z,24.67
2019-01-06T20:04:22.224Z,22.97
2019-01-06T20:07:04.801Z,23.77
2019-01-06T20:09:51.138Z,22.93
2019-01-06T20:12:27.422Z,22.07
2019-01-06T20:15:16.125Z,25.30
2019-01-06T20:17:49.315Z,24.07
2019-01-06T20:20:22.424Z,23.57
2019-01-06T20:23:08.549Z,24.90
2019-01-06T20:25:57.078Z,26.37
2019-01-06T20:28:29.858Z,24.87
2019-01-06T20:31:12.308Z,27.37
2019-01-06T20:33:54.307Z,23.43
2019-01-06T20:36:24.427Z,26.03
2019-01-06T20:39:03.638Z,24.83
2019-01-06T20:41:48.479Z,23.40
2019-01-06T20:44:18.576Z,22.77
2019-01-06T20:47:05.006Z,21.20
2019-01-06T20:49:51.889Z,25.80
2019-01-06T20:52:41.849Z,25.27
2019-01-06T20:55:26.740Z,25.00
2019-01-06T20:58:13.403Z,28.20
2019-01-06T21:00:49.683Z,27.90
2019-01-06T21:03:37.156Z,29.70
2019-01-06T21:06:22.850Z,26.23
2019-01-06T21:09:08.884Z,26.73
2019-01-06T21:11:50.862Z,24.40
2019-01-06T21:14:23.746Z,30.77
2019-01-06T21:16:53.838Z,30.37
2019-01-06T21:19:26.561Z,27.00
2019-01-06T21:22:12.662Z,29.17
2019-01-06T21:24:54.846Z,28.87
2019-01-06T21:27:41.547Z,28.83
2019-01-06T21:30:11.784Z,30.27
2019-01-06T21:32:57.182Z,30.33
2019-01-06T21:35:43.564Z,34.80
2019-01-06T21:38:13.671Z,30.77
2019-01-06T21:40:59.723Z,29.33
2019-01-06T21:43:46.237Z,31.23
2019-01-06T21:46:32.985Z,33.10
2019-01-06T21:49:19.300Z,27.60
2019-01-06T21:52:01.632Z,30.03
2019-01-06T21:54:48.121Z,33.00
2019-01-06T21:57:33.195Z,32.33
2019-01-06T22:00:12.126Z,29.77
2019-01-06T22:02:44.995Z,33.07
2019-01-06T22:05:31.103Z,31.77
2019-01-06T22:08:01.159Z,33.77
2019-01-06T22:10:47.382Z,31.87
2019-01-06T22:13:17.435Z,33.37
2019-01-06T22:15:50.355Z,31.23
2019-01-06T22:18:36.743Z,31.90
2019-01-06T22:21:07.022Z,32.20
2019-01-06T22:23:49.313Z,41.17
2019-01-06T22:26:25.427Z,34.10
2019-01-06T22:28:55.530Z,37.07
2019-01-06T22:31:43.725Z,36.70
2019-01-06T22:34:25.760Z,34.73
2019-01-06T22:37:07.433Z,41.87
2019-01-06T22:39:46.320Z,34.13
2019-01-06T22:42:19.434Z,38.17
2019-01-06T22:44:58.280Z,36.07
2019-01-06T22:47:28.436Z,39.20
2019-01-06T22:50:01.493Z,33.87
2019-01-06T22:52:37.731Z,34.67
2019-01-06T22:55:16.885Z,36.80
2019-01-06T22:58:03.497Z,38.67
2019-01-06T23:00:37.019Z,38.30
2019-01-06T23:03:16.279Z,38.73
2019-01-06T23:06:02.504Z,40.37
2019-01-06T23:08:38.739Z,36.87
2019-01-06T23:11:23.793Z,36.40
2019-01-06T23:14:06.046Z,37.73
2019-01-06T23:16:36.103Z,39.20
2019-01-06T23:19:22.858Z,40.77
2019-01-06T23:22:08.073Z,39.47
2019-01-06T23:24:50.345Z,39.33
2019-01-06T23:27:20.390Z,37.17
2019-01-06T23:30:06.984Z,41.50
2019-01-06T23:32:49.231Z,40.30
2019-01-06T23:35:24.842Z,35.63
2019-01-06T23:38:06.677Z,36.43
2019-01-06T23:40:36.781Z,42.10
2019-01-06T23:43:23.233Z,39.83
2019-01-06T23:45:59.287Z,39.13
2019-01-06T23:48:35.317Z,37.73
2019-01-06T23:51:05.502Z,39.17
2019-01-06T23:53:53.680Z,37.50
2019-01-06T23:56:29.680Z,43.67
2019-01-06T23:58:59.739Z,42.10
